createdAt,value
2023-10-01T00:03:51.962Z,10.75
2023-10-01T00:08:55.068Z,10.69
2023-10-01T00:13:56.731Z,10.68
2023-10-01T00:19:00.620Z,10.69
2023-10-01T00:24:02.512Z,10.67
2023-10-01T00:29:04.991Z,10.53
2023-10-01T00:34:08.458Z,10.41
2023-10-01T00:39:10.397Z,10.39
2023-10-01T00:44:13.878Z,10.42
2023-10-01T00:49:16.239Z,10.47
2023-10-01T00:54:18.090Z,10.51
2023-10-01T00:59:19.780Z,10.47
2023-10-01T01:04:24.110Z,10.38
2023-10-01T01:09:25.854Z,10.37
2023-10-01T01:14:29.126Z,10.34
2023-10-01T01:19:31.585Z,10.31
2023-10-01T01:24:33.442Z,10.28
2023-10-01T01:29:35.449Z,10.19
2023-10-01T01:34:37.320Z,10.18
2023-10-01T01:39:55.654Z,10.14
2023-10-01T01:45:16.122Z,10.11
2023-10-01T01:50:28.519Z,10.09
2023-10-01T01:55:32.856Z,10.03
2023-10-01T02:00:48.548Z,10.07
2023-10-01T02:05:50.303Z,10.06
2023-10-01T02:10:53.860Z,10.05
2023-10-01T02:15:56.320Z,10.12
2023-10-01T02:20:58.432Z,10.12
2023-10-01T02:26:02.006Z,10.06
2023-10-01T02:31:08.101Z,10.05
2023-10-01T02:36:13.825Z,10.02
2023-10-01T02:41:16.303Z,10.07
2023-10-01T02:46:26.195Z,10.10
2023-10-01T02:51:33.929Z,10.06
2023-10-01T02:56:53.719Z,10.04
2023-10-01T03:01:56.540Z,10.11
2023-10-01T03:06:58.982Z,10.16
2023-10-01T03:12:20.275Z,10.21
2023-10-01T03:17:24.696Z,10.24
2023-10-01T03:22:33.035Z,10.25
2023-10-01T03:27:40.041Z,10.30
2023-10-01T03:32:41.928Z,10.34
2023-10-01T03:37:44.824Z,10.31
2023-10-01T03:42:51.949Z,10.34
2023-10-01T03:47:59.270Z,10.38
2023-10-01T03:53:01.149Z,10.39
2023-10-01T03:58:06.021Z,10.37
2023-10-01T04:03:09.505Z,10.40
2023-10-01T04:08:15.141Z,10.41
2023-10-01T04:13:22.270Z,10.42
2023-10-01T04:18:25.494Z,10.44
2023-10-01T04:23:36.606Z,10.49
2023-10-01T04:28:45.182Z,10.55
2023-10-01T04:33:51.911Z,10.55
2023-10-01T04:39:01.376Z,10.50
2023-10-01T04:44:09.367Z,10.58
2023-10-01T04:49:37.039Z,10.58
2023-10-01T04:54:41.559Z,10.62
2023-10-01T04:59:58.716Z,10.62
2023-10-01T05:05:11.172Z,10.65
2023-10-01T05:10:14.363Z,10.73
2023-10-01T05:15:19.323Z,10.73
2023-10-01T05:20:21.102Z,10.83
2023-10-01T05:25:26.204Z,10.87
2023-10-01T05:30:37.709Z,10.94
2023-10-01T05:35:45.820Z,11.05
2023-10-01T05:40:53.497Z,11.17
2023-10-01T05:46:02.633Z,11.25
2023-10-01T05:51:07.659Z,11.32
2023-10-01T05:56:20.517Z,11.40
2023-10-01T06:01:23.262Z,11.59
2023-10-01T06:06:25.807Z,11.75
2023-10-01T06:11:43.275Z,11.94
2023-10-01T06:16:45.074Z,12.11
2023-10-01T06:21:48.258Z,12.26
2023-10-01T06:26:52.100Z,12.36
2023-10-01T06:31:54.425Z,12.48
2023-10-01T06:37:03.052Z,12.57
2023-10-01T06:42:21.575Z,12.76
2023-10-01T06:47:27.214Z,12.81
2023-10-01T06:52:30.259Z,12.68
2023-10-01T06:57:34.807Z,12.69
2023-10-01T07:02:37.573Z,12.88
2023-10-01T07:07:42.527Z,13.06
2023-10-01T07:12:59.066Z,13.08
2023-10-01T07:18:14.801Z,13.21
2023-10-01T07:23:20.105Z,13.49
2023-10-01T07:28:21.862Z,13.82
2023-10-01T07:33:23.860Z,13.94
2023-10-01T07:38:27.891Z,14.29
2023-10-01T07:43:31.100Z,14.59
2023-10-01T07:48:33.281Z,14.74
2023-10-01T07:53:35.068Z,14.94
2023-10-01T07:58:52.355Z,15.30
2023-10-01T08:03:57.464Z,15.69
2023-10-01T08:09:00.615Z,15.93
2023-10-01T08:14:06.803Z,16.19
2023-10-01T08:19:12.763Z,16.39
2023-10-01T08:24:19.470Z,16.59
2023-10-01T08:29:21.151Z,16.65
2023-10-01T08:34:25.801Z,16.76
2023-10-01T08:39:35.188Z,17.21
2023-10-01T08:44:48.015Z,17.58
2023-10-01T08:49:51.133Z,17.86
2023-10-01T08:54:57.431Z,18.13
2023-10-01T09:00:01.172Z,18.19
2023-10-01T09:05:09.175Z,18.24
2023-10-01T09:10:19.193Z,18.25
2023-10-01T09:15:39.257Z,18.33
2023-10-01T09:21:01.500Z,18.47
2023-10-01T09:26:03.672Z,18.60
2023-10-01T09:31:24.318Z,18.84
2023-10-01T09:36:36.562Z,19.05
2023-10-01T09:41:44.589Z,19.00
2023-10-01T09:46:46.346Z,18.96
2023-10-01T09:51:53.895Z,18.95
2023-10-01T09:56:57.879Z,19.05
2023-10-01T10:02:04.205Z,19.24
2023-10-01T10:07:09.181Z,19.56
2023-10-01T10:12:10.893Z,19.74
2023-10-01T10:17:18.413Z,19.95
2023-10-01T10:22:20.157Z,20.24
2023-10-01T10:27:28.778Z,20.29
2023-10-01T10:32:43.521Z,20.41
2023-10-01T10:37:46.572Z,20.45
2023-10-01T10:42:48.331Z,20.54
2023-10-01T10:48:07.805Z,20.71
2023-10-01T10:53:44.511Z,20.97
2023-10-01T10:58:52.012Z,20.83
2023-10-01T11:03:58.210Z,20.60
2023-10-01T11:09:00.319Z,20.51
2023-10-01T11:14:02.273Z,20.39
2023-10-01T11:19:15.325Z,20.21
2023-10-01T11:24:18.059Z,20.22
2023-10-01T11:29:23.513Z,20.33
2023-10-01T11:34:28.049Z,20.69
2023-10-01T11:39:50.463Z,21.01
2023-10-01T11:44:53.945Z,21.22
2023-10-01T11:50:08.522Z,21.40
2023-10-01T11:55:22.939Z,21.56
2023-10-01T12:00:42.904Z,21.69
2023-10-01T12:05:47.559Z,21.68
2023-10-01T12:10:52.671Z,21.50
2023-10-01T12:15:54.609Z,21.71
2023-10-01T12:20:57.453Z,21.72
2023-10-01T12:26:19.064Z,21.75
2023-10-01T12:31:24.818Z,21.71
2023-10-01T12:36:33.450Z,21.76
2023-10-01T12:41:55.484Z,21.65
2023-10-01T12:47:02.091Z,21.95
2023-10-01T12:52:05.205Z,22.16
2023-10-01T12:57:10.764Z,22.18
2023-10-01T13:02:29.339Z,22.17
2023-10-01T13:07:37.152Z,22.13
2023-10-01T13:12:58.769Z,21.90
2023-10-01T13:18:02.630Z,21.87
2023-10-01T13:23:11.051Z,21.90
2023-10-01T13:28:20.249Z,21.91
2023-10-01T13:33:24.636Z,21.88
2023-10-01T13:38:28.470Z,21.78
2023-10-01T13:43:58.246Z,21.85
2023-10-01T13:49:18.557Z,21.91
2023-10-01T13:54:38.973Z,22.01
2023-10-01T13:59:59.328Z,22.02
2023-10-01T14:05:19.648Z,21.96
2023-10-01T14:10:21.568Z,21.92
2023-10-01T14:15:24.758Z,21.90
2023-10-01T14:20:43.715Z,21.84
2023-10-01T14:26:15.194Z,21.72
2023-10-01T14:31:36.095Z,21.69
2023-10-01T14:36:43.749Z,21.61
2023-10-01T14:41:47.207Z,21.55
2023-10-01T14:46:49.873Z,21.48
2023-10-01T14:51:55.210Z,21.41
2023-10-01T14:56:57.990Z,21.36
2023-10-01T15:02:00.099Z,21.20
2023-10-01T15:07:02.270Z,21.14
2023-10-01T15:12:07.685Z,21.08
2023-10-01T15:17:18.677Z,21.02
2023-10-01T15:22:21.133Z,21.00
2023-10-01T15:27:26.356Z,20.97
2023-10-01T15:32:31.668Z,20.94
2023-10-01T15:37:34.346Z,20.91
2023-10-01T15:42:37.537Z,20.87
2023-10-01T15:47:47.006Z,20.82
2023-10-01T15:52:51.071Z,20.77
2023-10-01T15:57:56.844Z,20.71
2023-10-01T16:03:11.222Z,20.65
2023-10-01T16:08:19.893Z,20.61
2023-10-01T16:13:29.757Z,20.55
2023-10-01T16:18:33.584Z,20.46
2023-10-01T16:23:39.468Z,20.38
2023-10-01T16:28:42.953Z,20.31
2023-10-01T16:33:47.061Z,20.25
2023-10-01T16:38:55.141Z,20.17
2023-10-01T16:44:00.338Z,20.09
2023-10-01T16:49:04.885Z,20.02
2023-10-01T16:54:22.484Z,19.98
2023-10-01T16:59:25.238Z,19.93
2023-10-01T17:04:32.512Z,19.90
2023-10-01T17:09:35.418Z,19.85
2023-10-01T17:14:39.246Z,19.80
2023-10-01T17:19:41.203Z,19.73
2023-10-01T17:24:47.798Z,19.70
2023-10-01T17:29:50.702Z,19.64
2023-10-01T17:34:53.562Z,19.59
2023-10-01T17:40:01.893Z,19.54
2023-10-01T17:45:04.270Z,19.49
2023-10-01T17:50:15.015Z,19.44
2023-10-01T17:55:27.373Z,19.39
2023-10-01T18:00:43.072Z,19.35
2023-10-01T18:06:00.191Z,19.30
2023-10-01T18:11:11.026Z,19.29
2023-10-01T18:16:27.005Z,19.32
2023-10-01T18:21:30.056Z,19.34
2023-10-01T18:26:32.212Z,19.30
2023-10-01T18:31:35.041Z,19.12
2023-10-01T18:36:36.789Z,18.84
2023-10-01T18:41:42.554Z,18.61
2023-10-01T18:46:44.383Z,18.47
2023-10-01T18:51:49.042Z,18.39
2023-10-01T18:56:52.228Z,18.28
2023-10-01T19:01:58.042Z,18.18
2023-10-01T19:07:00.315Z,18.07
2023-10-01T19:12:02.012Z,17.96
2023-10-01T19:17:03.940Z,17.86
2023-10-01T19:22:11.943Z,17.81
2023-10-01T19:27:13.850Z,17.79
2023-10-01T19:32:15.566Z,17.77
2023-10-01T19:37:17.445Z,17.69
2023-10-01T19:42:25.182Z,17.59
2023-10-01T19:47:26.988Z,17.46
2023-10-01T19:52:29.951Z,17.31
2023-10-01T19:57:41.069Z,17.13
2023-10-01T20:02:45.751Z,16.95
2023-10-01T20:07:50.664Z,16.80
2023-10-01T20:12:53.870Z,16.66
2023-10-01T20:18:08.832Z,16.54
2023-10-01T20:23:10.607Z,16.43
2023-10-01T20:28:12.300Z,16.38
2023-10-01T20:33:16.308Z,16.32
2023-10-01T20:38:33.797Z,16.21
2023-10-01T20:43:35.663Z,16.12
2023-10-01T20:48:41.579Z,16.09
2023-10-01T20:53:44.296Z,16.08
2023-10-01T20:58:46.621Z,16.04
2023-10-01T21:03:51.804Z,16.04
2023-10-01T21:08:53.522Z,15.99
2023-10-01T21:14:01.752Z,15.98
2023-10-01T21:19:04.320Z,15.90
2023-10-01T21:24:10.126Z,15.83
2023-10-01T21:29:19.829Z,15.84
2023-10-01T21:34:21.753Z,15.81
2023-10-01T21:39:24.487Z,15.79
2023-10-01T21:44:27.864Z,15.76
2023-10-01T21:49:30.950Z,15.76
2023-10-01T21:54:33.168Z,15.84
2023-10-01T21:59:39.252Z,15.92
2023-10-01T22:04:49.214Z,15.98
2023-10-01T22:09:54.836Z,15.94
2023-10-01T22:14:56.558Z,15.94
2023-10-01T22:19:58.576Z,15.95
2023-10-01T22:25:00.302Z,15.84
2023-10-01T22:30:02.562Z,15.83
2023-10-01T22:35:09.036Z,15.81
2023-10-01T22:40:13.175Z,15.74
2023-10-01T22:45:29.948Z,15.66
2023-10-01T22:50:32.122Z,15.55
2023-10-01T22:55:34.861Z,15.46
2023-10-01T23:00:38.176Z,15.32
2023-10-01T23:05:40.725Z,15.17
2023-10-01T23:10:43.133Z,15.09
2023-10-01T23:15:50.007Z,15.00
2023-10-01T23:20:54.567Z,14.92
2023-10-01T23:26:06.494Z,14.85
2023-10-01T23:31:13.169Z,14.78
2023-10-01T23:36:15.629Z,14.74
2023-10-01T23:41:29.612Z,14.68
2023-10-01T23:46:34.563Z,14.63
2023-10-01T23:51:42.840Z,14.52
2023-10-01T23:56:44.654Z,14.44
